D/T METAR WX W/DIR W/SPE G/SPE TEMP DEWP
6/06/20 11:50 EGPC 061050Z AUTO 36007KT 9999 BKN021/// OVC029/// 12/09 Q0997 N (360°) 8.1mph 12°C 9°C
6/06/20 11:20 EGPC 061020Z AUTO 01007KT 9999 SCT015/// BKN020/// OVC025/// 12/09 Q0997 N (10°) 8.1mph 12°C 9°C
6/06/20 10:50 EGPC 060950Z AUTO 02006KT 9999 FEW013/// BKN017/// 12/09 Q0997 NNE (20°) 6.9mph 12°C 9°C
6/06/20 10:20 EGPC 060920Z AUTO 05004KT 9999 NCD 11/09 Q0996 NE (50°) 4.6mph 11°C 9°C
6/06/20 09:50 EGPC 060850Z AUTO 05006KT 9999 NCD 11/08 Q0996 NE (50°) 6.9mph 11°C 8°C
6/06/20 09:20 EGPC 060820Z AUTO 03006KT 9999 NCD 10/09 Q0996 NNE (30°) 6.9mph 10°C 9°C
6/06/20 08:50 EGPC 060750Z AUTO 02007KT 9999 NCD 10/09 Q0996 NNE (20°) 8.1mph 10°C 9°C
6/06/20 08:20 EGPC 060720Z AUTO 01007KT 9999 FEW005/// 10/09 Q0995 N (10°) 8.1mph 10°C 9°C
6/06/20 07:50 EGPC 060650Z AUTO 02007KT 9999 BKN005/// 10/09 Q0995 NNE (20°) 8.1mph 10°C 9°C
6/06/20 07:20 EGPC 060620Z AUTO 02008KT 9999 BKN005/// 10/09 Q0995 NNE (20°) 9.2mph 10°C 9°C
6/06/20 06:50 EGPC 060550Z AUTO 02008KT 9999 BKN007/// 10/09 Q0994 NNE (20°) 9.2mph 10°C 9°C
6/06/20 06:20 EGPC 060520Z AUTO 02008KT 9999 BKN008/// 09/09 Q0994 NNE (20°) 9.2mph 9°C 9°C
6/06/20 05:50 EGPC 060450Z AUTO 02007KT 9999 BKN009/// 09/08 Q0993 NNE (20°) 8.1mph 9°C 8°C
6/06/20 05:20 EGPC 060420Z AUTO 03008KT 9999 OVC009/// 09/08 Q0993 NNE (30°) 9.2mph 9°C 8°C
6/06/20 04:50 EGPC 060350Z AUTO 02007KT 9999 NCD 08/07 Q0993 NNE (20°) 8.1mph 8°C 7°C
6/06/20 04:20 EGPC 060320Z AUTO 02007KT 9999 NCD 08/07 Q0993 NNE (20°) 8.1mph 8°C 7°C
6/06/20 03:50 EGPC 060250Z AUTO 02007KT 9999 NCD 09/08 Q0992 NNE (20°) 8.1mph 9°C 8°C
6/06/20 02:50 EGPC 060150Z AUTO 02010KT 9999 -RA NCD 09/08 Q0992 -RA NNE (20°) 11.5mph 9°C 8°C
6/06/20 02:20 EGPC 060120Z AUTO 02010KT 9999 -RA NCD 09/08 Q0992 -RA NNE (20°) 11.5mph 9°C 8°C
6/06/20 01:20 EGPC 060020Z AUTO 02011KT 9999 -RA FEW007/// BKN025/// BKN035/// 09/09 Q0991 -RA NNE (20°) 12.7mph 9°C 9°C
6/06/20 00:50 EGPC 052350Z AUTO 02011KT 9999 SCT026/// SCT040/// OVC047/// 09/09 Q0991 NNE (20°) 12.7mph 9°C 9°C
5/06/20 23:50 EGPC 052250Z AUTO 03013KT 9999 -RA FEW018/// SCT023/// BKN034/// 09/08 Q0990 -RA NNE (30°) 15.0mph 9°C 8°C
5/06/20 22:50 EGPC 052150Z AUTO 02012KT 8000 -RA SCT008/// BKN012/// BKN018/// 10/09 Q0989 -RA NNE (20°) 13.8mph 10°C 9°C
5/06/20 22:20 EGPC 052120Z AUTO 03012KT 9999 -RA OVC021/// 10/09 Q0989 -RA NNE (30°) 13.8mph 10°C 9°C
5/06/20 21:50 EGPC 052050Z AUTO 02015KT 9999 SCT007/// OVC023/// 10/09 Q0989 NNE (20°) 17.3mph 10°C 9°C
5/06/20 21:20 EGPC 052020Z AUTO 02015KT 9999 -RA BKN007/// OVC013/// 10/09 Q0988 -RA NNE (20°) 17.3mph 10°C 9°C
5/06/20 20:50 EGPC 051950Z AUTO 01016KT 9999 BKN009/// OVC012/// 10/09 Q0988 N (10°) 18.4mph 10°C 9°C
5/06/20 20:20 EGPC 051920Z AUTO 36018KT 9999 BKN008/// OVC014/// 10/09 Q0988 N (360°) 20.7mph 10°C 9°C
5/06/20 19:50 EGPC 051850Z AUTO 36021KT 9999 -RA BKN012/// OVC017/// 10/09 Q0987 -RA N (360°) 24.2mph 10°C 9°C
5/06/20 19:20 EGPC 051820Z AUTO 36020KT 9999 SCT009/// BKN014/// OVC022/// 10/09 Q0987 N (360°) 23.0mph 10°C 9°C
5/06/20 18:50 EGPC 051750Z AUTO 35020KT 9999 -RA FEW009/// BKN025/// OVC037/// 10/09 Q0987 -RA N (350°) 23.0mph 10°C 9°C
5/06/20 18:20 EGPC 051720Z AUTO 35022KT 9999 -RA SCT009/// BKN026/// BKN031/// 10/09 Q0986 -RA N (350°) 25.3mph 10°C 9°C
5/06/20 17:50 EGPC 051650Z AUTO 35021KT 9999 -RA FEW008/// BKN027/// OVC039/// 10/09 Q0986 -RA N (350°) 24.2mph 10°C 9°C
5/06/20 17:20 EGPC 051620Z AUTO 35018KT 9999 -RA BKN007/// OVC030/// 10/09 Q0987 -RA N (350°) 20.7mph 10°C 9°C
5/06/20 16:50 EGPC 051550Z AUTO 34016KT 9999 -RA BKN005/// OVC009/// 10/09 Q0987 -RA NNW (340°) 18.4mph 10°C 9°C
5/06/20 16:20 EGPC 051520Z AUTO 33022G32KT 7000 -RA OVC005/// 09/08 Q0987 RERA -RA NNW (330°) 25.3mph 36.8mph 9°C 8°C
5/06/20 15:50 EGPC 051450Z AUTO 32025KT 4200 RA BKN005/// OVC010/// 09/08 Q0987 RA NW (320°) 28.8mph 9°C 8°C
5/06/20 15:20 EGPC 051420Z AUTO 32029KT 8000 -RA BKN007/// OVC015/// 08/08 Q0987 -RA NW (320°) 33.4mph 8°C 8°C
5/06/20 14:50 EGPC 051350Z AUTO 32029G39KT 9999 -RA BKN007/// BKN014/// OVC027/// 08/07 Q0988 -RA NW (320°) 33.4mph 44.9mph 8°C 7°C
5/06/20 14:20 EGPC 051320Z AUTO 33029KT 7000 -RA BKN008/// OVC011/// 08/07 Q0988 -RA NNW (330°) 33.4mph 8°C 7°C
5/06/20 13:50 EGPC 051250Z 33030KT 6000 -RADZ SCT008 BKN014 08/07 Q0988 -RA -DZ NNW (330°) 34.5mph 8°C 7°C
5/06/20 13:20 EGPC 051220Z 33029KT 6000 -RADZ SCT008 BKN014 08/07 Q0989 -RA -DZ NNW (330°) 33.4mph 8°C 7°C
5/06/20 12:50 EGPC 051150Z 33026G36KT 7000 -SHRA SCT008 BKN016 08/07 Q0989 -SHRA NNW (330°) 29.9mph 41.4mph 8°C 7°C
5/06/20 12:20 EGPC 051120Z 33027KT 7000 -SHRA SCT008 BKN012 08/07 Q0990 -SHRA NNW (330°) 31.1mph 8°C 7°C
5/06/20 11:50 EGPC 051050Z 33028G39KT 7000 -SHRA FEW008 SCT018 BKN030 08/06 Q0990 -SHRA NNW (330°) 32.2mph 44.9mph 8°C 6°C
5/06/20 11:20 EGPC 051020Z AUTO 33027G37KT 8000 SCT007/// BKN011/// BKN017/// 08/06 Q0990 RERA NNW (330°) 31.1mph 42.6mph 8°C 6°C
5/06/20 10:50 EGPC 050950Z AUTO 33026G37KT 9999 SCT010/// BKN015/// BKN026/// 08/06 Q0991 RERA NNW (330°) 29.9mph 42.6mph 8°C 6°C
5/06/20 10:20 EGPC 050920Z AUTO 33024G34KT 9999 BKN014/// BKN025/// BKN034/// 08/06 Q0991 RERA NNW (330°) 27.6mph 39.1mph 8°C 6°C
5/06/20 09:50 EGPC 050850Z 33025KT 9999 VCSH FEW018 SCT028 08/06 Q0992 VCSH NNW (330°) 28.8mph 8°C 6°C
5/06/20 09:20 EGPC 050820Z 33026KT 9999 VCSH FEW018 SCT028 08/05 Q0992 VCSH NNW (330°) 29.9mph 8°C 5°C
5/06/20 08:50 EGPC 050750Z 33024KT 9999 VCSH FEW018 SCT028 08/06 Q0992 VCSH NNW (330°) 27.6mph 8°C 6°C
5/06/20 08:20 EGPC 050720Z 33023KT 9999 -SHRA FEW018 SCT028 08/05 Q0993 -SHRA NNW (330°) 26.5mph 8°C 5°C
5/06/20 07:50 EGPC 050650Z 34023KT 9999 VCSH FEW018 SCT028 08/04 Q0993 VCSH NNW (340°) 26.5mph 8°C 4°C
5/06/20 07:20 EGPC 050620Z AUTO 34018G28KT 9999 FEW022/// SCT035/// 08/05 Q0993 NNW (340°) 20.7mph 32.2mph 8°C 5°C
5/06/20 06:50 EGPC 050550Z AUTO 34018KT 9999 FEW023/// SCT033/// 07/04 Q0993 NNW (340°) 20.7mph 7°C 4°C
5/06/20 06:20 EGPC 050520Z AUTO 33015KT 9999 FEW025/// SCT032/// BKN042/// 06/04 Q0994 NNW (330°) 17.3mph 6°C 4°C
5/06/20 05:50 EGPC 050450Z AUTO 33015KT 9999 FEW025/// SCT031/// 06/04 Q0994 NNW (330°) 17.3mph 6°C 4°C
5/06/20 05:20 EGPC 050420Z AUTO 34014KT 9999 FEW021/// SCT027/// BKN048/// 06/04 Q0994 NNW (340°) 16.1mph 6°C 4°C
5/06/20 04:20 EGPC 050320Z AUTO 34008KT 9999 FEW026/// SCT034/// 05/04 Q0995 NNW (340°) 9.2mph 5°C 4°C
5/06/20 03:50 EGPC 050250Z AUTO 32010KT 9999 SCT021/// BKN037/// 05/04 Q0995 NW (320°) 11.5mph 5°C 4°C
5/06/20 02:50 EGPC 050150Z AUTO 33007KT 9999 FEW036/// SCT043/// 05/04 Q0996 NNW (330°) 8.1mph 5°C 4°C
5/06/20 02:20 EGPC 050120Z AUTO 35012KT 9999 SCT022/// SCT037/// BKN045/// 06/04 Q0996 N (350°) 13.8mph 6°C 4°C
5/06/20 01:20 EGPC 050020Z AUTO 32008KT 9999 FEW026/// SCT034/// 06/03 Q0997 NW (320°) 9.2mph 6°C 3°C
5/06/20 00:50 EGPC 042350Z AUTO 33010KT 9999 BKN035/// 06/03 Q0997 NNW (330°) 11.5mph 6°C 3°C
4/06/20 23:50 EGPC 042250Z AUTO 33007KT 9999 FEW022/// SCT034/// 05/03 Q0998 NNW (330°) 8.1mph 5°C 3°C
4/06/20 23:20 EGPC 042220Z AUTO 33009KT 9999 FEW028/// BKN037/// 06/03 Q0998 NNW (330°) 10.4mph 6°C 3°C
4/06/20 22:20 EGPC 042120Z AUTO 33007KT 9999 BKN022/// BKN035/// 06/04 Q0999 NNW (330°) 8.1mph 6°C 4°C
4/06/20 21:50 EGPC 042050Z AUTO 34009KT 9999 -RA SCT028/// BKN033/// 07/04 Q0999 -RA NNW (340°) 10.4mph 7°C 4°C
4/06/20 21:20 EGPC 042020Z AUTO 36013KT 9999 SCT019/// SCT024/// BKN030/// 07/05 Q1000 N (360°) 15.0mph 7°C 5°C
4/06/20 20:50 EGPC 041950Z AUTO 32009KT 9999 SCT020/// BKN026/// BKN043/// 08/05 Q1000 NW (320°) 10.4mph 8°C 5°C
4/06/20 20:20 EGPC 041920Z AUTO 34013KT 9999 FEW034/// BKN043/// 08/04 Q1000 NNW (340°) 15.0mph 8°C 4°C
4/06/20 19:50 EGPC 041850Z 34016KT 9999 VCSH FEW029 SCT044 08/03 Q1000 VCSH NNW (340°) 18.4mph 8°C 3°C
4/06/20 19:20 EGPC 041820Z 33015KT 9999 VCSH FEW029 09/04 Q1000 VCSH NNW (330°) 17.3mph 9°C 4°C
4/06/20 18:50 EGPC 041750Z 33012KT 9999 VCSH SCT029 09/04 Q1000 VCSH NNW (330°) 13.8mph 9°C 4°C
4/06/20 18:20 EGPC 041720Z AUTO 34014KT 9999 SCT047/// 09/03 Q1000 NNW (340°) 16.1mph 9°C 3°C
4/06/20 17:50 EGPC 041650Z AUTO 34014KT 9999 BKN048/// 09/03 Q1000 NNW (340°) 16.1mph 9°C 3°C
4/06/20 17:20 EGPC 041620Z AUTO 34015KT 9999 FEW030/// SCT038/// 10/04 Q1001 NNW (340°) 17.3mph 10°C 4°C
4/06/20 16:50 EGPC 041550Z AUTO 33017KT 9999 SCT026/// BKN034/// 11/05 Q1001 NNW (330°) 19.6mph 11°C 5°C
4/06/20 15:50 EGPC 041450Z AUTO 36008KT 330V040 9999 FEW027/// BKN034/// BKN041/// 09/05 Q1002 N (360°) 9.2mph 9°C 5°C
4/06/20 15:20 EGPC 041420Z AUTO 36012KT 9999 FEW030/// 10/04 Q1002 N (360°) 13.8mph 10°C 4°C
4/06/20 14:50 EGPC 041350Z AUTO 34013KT 9999 FEW032/// SCT046/// 10/04 Q1002 NNW (340°) 15.0mph 10°C 4°C
4/06/20 14:20 EGPC 041320Z 36011KT 9999 VCSH SCT042 10/04 Q1002 VCSH N (360°) 12.7mph 10°C 4°C
4/06/20 13:50 EGPC 041250Z 02010KT 9999 VCSH SCT042 10/05 Q1002 VCSH NNE (20°) 11.5mph 10°C 5°C
4/06/20 13:20 EGPC 041220Z 03011KT 9999 VCSH SCT026 09/05 Q1003 VCSH NNE (30°) 12.7mph 9°C 5°C
4/06/20 12:50 EGPC 041150Z 36009KT 9999 VCSH SCT026 10/05 Q1003 VCSH N (360°) 10.4mph 10°C 5°C
4/06/20 12:20 EGPC 041120Z 36007KT 9999 VCSH FEW020 09/05 Q1003 VCSH N (360°) 8.1mph 9°C 5°C
4/06/20 11:50 EGPC 041050Z 35009KT 9999 VCSH FEW020 09/05 Q1003 VCSH N (350°) 10.4mph 9°C 5°C
4/06/20 11:20 EGPC 041020Z AUTO 36007KT 9999 SCT018/// BKN024/// BKN029/// 08/05 Q1003 N (360°) 8.1mph 8°C 5°C
4/06/20 10:50 EGPC 040950Z AUTO 34007KT 9999 BKN026/// BKN031/// 08/05 Q1004 NNW (340°) 8.1mph 8°C 5°C
4/06/20 10:20 EGPC 040920Z AUTO 33005KT 300V010 9999 FEW036/// 07/05 Q1004 NNW (330°) 5.8mph 7°C 5°C
4/06/20 09:50 EGPC 040850Z 34005KT 9999 -RA SCT020 BKN032 07/05 Q1004 -RA NNW (340°) 5.8mph 7°C 5°C
4/06/20 09:20 EGPC 040820Z 36006KT 9999 -RA SCT020 BKN032 07/04 Q1004 -RA N (360°) 6.9mph 7°C 4°C
4/06/20 08:50 EGPC 040750Z 02007KT 9999 -SHRA SCT020 BKN028 07/05 Q1004 -SHRA NNE (20°) 8.1mph 7°C 5°C
4/06/20 08:20 EGPC 040720Z 04005KT 9999 -SHRA FEW014 SCT036 07/05 Q1004 -SHRA NE (40°) 5.8mph 7°C 5°C
4/06/20 07:50 EGPC 040650Z VRB03KT 9999 -SHRA FEW014 SCT036 07/05 Q1005 -SHRA N (0°) 3.5mph 7°C 5°C
4/06/20 07:20 EGPC 040620Z AUTO 35002KT 9999 SCT023/// BKN038/// 07/05 Q1005 N (350°) 2.3mph 7°C 5°C